sensor_id;sensor_type;location;lat;lon;timestamp;pressure;altitude;pressure_sealevel;temperature;humidity
47430;BME280;33181;49.246;7.372;2024-01-15T00:01:17;97993.53;;;-3.53;88.23
47430;BME280;33181;49.246;7.372;2024-01-15T00:03:43;97996.19;;;-3.56;88.18
47430;BME280;33181;49.246;7.372;2024-01-15T00:06:08;97999.72;;;-3.58;88.57
47430;BME280;33181;49.246;7.372;2024-01-15T00:08:34;97994.56;;;-3.58;89.11
47430;BME280;33181;49.246;7.372;2024-01-15T00:11:00;97982.69;;;-3.61;89.52
47430;BME280;33181;49.246;7.372;2024-01-15T00:13:25;97990.06;;;-3.52;89.05
47430;BME280;33181;49.246;7.372;2024-01-15T00:15:51;97987.53;;;-3.53;89.10
47430;BME280;33181;49.246;7.372;2024-01-15T00:18:17;97982.97;;;-3.45;88.60
47430;BME280;33181;49.246;7.372;2024-01-15T00:20:42;97993.13;;;-3.42;88.62
47430;BME280;33181;49.246;7.372;2024-01-15T00:23:08;97979.66;;;-3.25;88.24
47430;BME280;33181;49.246;7.372;2024-01-15T00:25:34;97979.00;;;-3.30;87.96
47430;BME280;33181;49.246;7.372;2024-01-15T00:28:00;97965.59;;;-3.15;87.93
47430;BME280;33181;49.246;7.372;2024-01-15T00:30:25;97968.03;;;-3.34;88.29
47430;BME280;33181;49.246;7.372;2024-01-15T00:32:52;97963.38;;;-3.24;87.75
47430;BME280;33181;49.246;7.372;2024-01-15T00:35:17;97958.56;;;-3.33;87.96
47430;BME280;33181;49.246;7.372;2024-01-15T00:37:43;97951.66;;;-3.55;89.09
47430;BME280;33181;49.246;7.372;2024-01-15T00:40:09;97952.84;;;-3.63;90.85
47430;BME280;33181;49.246;7.372;2024-01-15T00:42:35;97941.22;;;-3.50;90.81
47430;BME280;33181;49.246;7.372;2024-01-15T00:45:01;97936.88;;;-3.48;90.91
47430;BME280;33181;49.246;7.372;2024-01-15T00:47:26;97939.91;;;-3.37;90.39
47430;BME280;33181;49.246;7.372;2024-01-15T00:49:52;97943.69;;;-3.25;89.20
47430;BME280;33181;49.246;7.372;2024-01-15T00:52:18;97943.44;;;-3.41;89.96
47430;BME280;33181;49.246;7.372;2024-01-15T00:54:43;97943.09;;;-3.32;90.37
47430;BME280;33181;49.246;7.372;2024-01-15T00:57:09;97942.00;;;-3.48;90.56
47430;BME280;33181;49.246;7.372;2024-01-15T00:59:35;97935.38;;;-3.54;92.05
47430;BME280;33181;49.246;7.372;2024-01-15T01:02:01;97933.28;;;-3.44;91.84
47430;BME280;33181;49.246;7.372;2024-01-15T01:04:28;97929.22;;;-3.26;91.22
47430;BME280;33181;49.246;7.372;2024-01-15T01:06:53;97925.50;;;-3.19;90.13
47430;BME280;33181;49.246;7.372;2024-01-15T01:09:19;97932.22;;;-3.38;90.65
47430;BME280;33181;49.246;7.372;2024-01-15T01:11:45;97935.97;;;-3.47;92.17
47430;BME280;33181;49.246;7.372;2024-01-15T01:14:10;97937.25;;;-3.35;92.11
47430;BME280;33181;49.246;7.372;2024-01-15T01:16:36;97937.44;;;-3.40;91.79
47430;BME280;33181;49.246;7.372;2024-01-15T01:19:05;97938.53;;;-3.23;91.29
47430;BME280;33181;49.246;7.372;2024-01-15T01:21:33;97939.00;;;-3.14;90.77
47430;BME280;33181;49.246;7.372;2024-01-15T01:23:58;97939.69;;;-3.09;90.70
47430;BME280;33181;49.246;7.372;2024-01-15T01:26:24;97939.78;;;-3.12;90.30
47430;BME280;33181;49.246;7.372;2024-01-15T01:28:50;97945.34;;;-3.00;90.57
47430;BME280;33181;49.246;7.372;2024-01-15T01:31:16;97933.03;;;-3.14;90.54
47430;BME280;33181;49.246;7.372;2024-01-15T01:33:42;97934.09;;;-3.20;90.70
47430;BME280;33181;49.246;7.372;2024-01-15T01:36:13;97934.91;;;-3.18;90.64
47430;BME280;33181;49.246;7.372;2024-01-15T01:38:40;97935.25;;;-3.05;90.33
47430;BME280;33181;49.246;7.372;2024-01-15T01:41:06;97937.75;;;-3.26;91.08
47430;BME280;33181;49.246;7.372;2024-01-15T01:43:32;97945.06;;;-3.15;90.85
47430;BME280;33181;49.246;7.372;2024-01-15T01:45:58;97935.25;;;-3.05;90.45
47430;BME280;33181;49.246;7.372;2024-01-15T01:48:26;97937.09;;;-3.09;90.67
47430;BME280;33181;49.246;7.372;2024-01-15T01:50:59;97938.81;;;-3.09;90.54
47430;BME280;33181;49.246;7.372;2024-01-15T01:53:26;97938.66;;;-3.27;91.47
47430;BME280;33181;49.246;7.372;2024-01-15T01:55:54;97933.31;;;-3.22;91.28
47430;BME280;33181;49.246;7.372;2024-01-15T01:58:21;97937.56;;;-3.21;91.92
47430;BME280;33181;49.246;7.372;2024-01-15T02:00:47;97927.19;;;-3.18;91.45
47430;BME280;33181;49.246;7.372;2024-01-15T02:03:14;97925.50;;;-2.97;91.12
47430;BME280;33181;49.246;7.372;2024-01-15T02:05:41;97932.13;;;-2.91;90.65
47430;BME280;33181;49.246;7.372;2024-01-15T02:08:08;97926.50;;;-2.79;89.76
47430;BME280;33181;49.246;7.372;2024-01-15T02:10:34;97916.03;;;-2.74;89.57
47430;BME280;33181;49.246;7.372;2024-01-15T02:13:00;97924.38;;;-2.90;89.85
47430;BME280;33181;49.246;7.372;2024-01-15T02:15:25;97917.63;;;-2.92;90.07
47430;BME280;33181;49.246;7.372;2024-01-15T02:18:05;97915.28;;;-2.98;90.91
47430;BME280;33181;49.246;7.372;2024-01-15T02:20:33;97906.75;;;-2.77;89.30
47430;BME280;33181;49.246;7.372;2024-01-15T02:23:13;97910.84;;;-2.73;89.51
47430;BME280;33181;49.246;7.372;2024-01-15T02:25:45;97918.13;;;-2.84;89.12
47430;BME280;33181;49.246;7.372;2024-01-15T02:28:16;97906.75;;;-2.77;89.56
47430;BME280;33181;49.246;7.372;2024-01-15T02:30:43;97906.41;;;-2.90;90.32
47430;BME280;33181;49.246;7.372;2024-01-15T02:33:10;97907.28;;;-2.91;90.61
47430;BME280;33181;49.246;7.372;2024-01-15T02:35:36;97895.69;;;-3.01;90.83
47430;BME280;33181;49.246;7.372;2024-01-15T02:38:03;97892.78;;;-2.92;91.18
47430;BME280;33181;49.246;7.372;2024-01-15T02:40:30;97890.31;;;-2.95;91.14
47430;BME280;33181;49.246;7.372;2024-01-15T02:42:56;97905.13;;;-2.80;90.76
47430;BME280;33181;49.246;7.372;2024-01-15T02:45:22;97902.19;;;-2.70;89.98
47430;BME280;33181;49.246;7.372;2024-01-15T02:47:48;97906.88;;;-2.60;89.90
47430;BME280;33181;49.246;7.372;2024-01-15T02:50:14;97904.75;;;-2.50;89.28
47430;BME280;33181;49.246;7.372;2024-01-15T02:52:41;97897.53;;;-2.62;89.67
47430;BME280;33181;49.246;7.372;2024-01-15T02:55:07;97892.09;;;-2.54;89.18
47430;BME280;33181;49.246;7.372;2024-01-15T02:57:33;97885.59;;;-2.63;89.61
47430;BME280;33181;49.246;7.372;2024-01-15T02:59:59;97876.34;;;-2.67;89.20
47430;BME280;33181;49.246;7.372;2024-01-15T03:02:25;97878.09;;;-2.68;89.94
47430;BME280;33181;49.246;7.372;2024-01-15T03:04:51;97872.81;;;-2.85;90.73
47430;BME280;33181;49.246;7.372;2024-01-15T03:07:17;97881.09;;;-2.78;90.70
47430;BME280;33181;49.246;7.372;2024-01-15T03:09:43;97892.97;;;-2.56;90.52
47430;BME280;33181;49.246;7.372;2024-01-15T03:12:09;97893.16;;;-2.40;90.30
47430;BME280;33181;49.246;7.372;2024-01-15T03:14:35;97892.91;;;-2.34;89.47
47430;BME280;33181;49.246;7.372;2024-01-15T03:17:01;97890.28;;;-2.32;88.95
47430;BME280;33181;49.246;7.372;2024-01-15T03:19:27;97884.09;;;-2.28;88.30
47430;BME280;33181;49.246;7.372;2024-01-15T03:21:53;97898.59;;;-2.46;89.00
47430;BME280;33181;49.246;7.372;2024-01-15T03:24:18;97910.28;;;-2.39;88.97
47430;BME280;33181;49.246;7.372;2024-01-15T03:26:44;97901.47;;;-2.53;89.78
47430;BME280;33181;49.246;7.372;2024-01-15T03:29:10;97896.34;;;-2.74;90.74
47430;BME280;33181;49.246;7.372;2024-01-15T03:31:35;97891.50;;;-2.82;91.94
47430;BME280;33181;49.246;7.372;2024-01-15T03:34:01;97887.31;;;-2.84;92.36
47430;BME280;33181;49.246;7.372;2024-01-15T03:36:27;97886.47;;;-2.85;93.24
47430;BME280;33181;49.246;7.372;2024-01-15T03:38:53;97878.66;;;-2.82;93.19
47430;BME280;33181;49.246;7.372;2024-01-15T03:41:18;97876.91;;;-2.81;93.21
47430;BME280;33181;49.246;7.372;2024-01-15T03:43:44;97868.94;;;-2.75;93.07
47430;BME280;33181;49.246;7.372;2024-01-15T03:46:10;97868.13;;;-2.75;93.33
47430;BME280;33181;49.246;7.372;2024-01-15T03:48:36;97862.69;;;-2.68;92.88
47430;BME280;33181;49.246;7.372;2024-01-15T03:51:01;97860.94;;;-2.67;92.63
47430;BME280;33181;49.246;7.372;2024-01-15T03:53:27;97862.34;;;-2.60;92.49
47430;BME280;33181;49.246;7.372;2024-01-15T03:55:53;97879.44;;;-2.39;92.38
47430;BME280;33181;49.246;7.372;2024-01-15T03:58:18;97857.56;;;-2.28;91.66
47430;BME280;33181;49.246;7.372;2024-01-15T04:00:44;97863.97;;;-2.18;91.63
47430;BME280;33181;49.246;7.372;2024-01-15T04:03:10;97861.47;;;-2.20;90.95
47430;BME280;33181;49.246;7.372;2024-01-15T04:05:36;97851.66;;;-2.30;90.95
47430;BME280;33181;49.246;7.372;2024-01-15T04:08:01;97859.31;;;-2.29;90.86
47430;BME280;33181;49.246;7.372;2024-01-15T04:10:29;97838.56;;;-2.45;91.74
47430;BME280;33181;49.246;7.372;2024-01-15T04:12:55;97841.53;;;-2.54;92.10
47430;BME280;33181;49.246;7.372;2024-01-15T04:15:21;97825.56;;;-2.62;93.28
47430;BME280;33181;49.246;7.372;2024-01-15T04:17:46;97826.44;;;-2.62;92.93
47430;BME280;33181;49.246;7.372;2024-01-15T04:20:12;97822.69;;;-2.54;93.53
47430;BME280;33181;49.246;7.372;2024-01-15T04:22:38;97825.56;;;-2.42;92.61
47430;BME280;33181;49.246;7.372;2024-01-15T04:25:04;97829.19;;;-2.46;92.33
47430;BME280;33181;49.246;7.372;2024-01-15T04:27:30;97819.78;;;-2.47;92.35
47430;BME280;33181;49.246;7.372;2024-01-15T04:29:56;97805.19;;;-2.46;92.26
47430;BME280;33181;49.246;7.372;2024-01-15T04:32:22;97813.06;;;-2.30;92.20
47430;BME280;33181;49.246;7.372;2024-01-15T04:34:47;97812.63;;;-2.20;91.29
47430;BME280;33181;49.246;7.372;2024-01-15T04:37:16;97813.03;;;-2.10;91.37
47430;BME280;33181;49.246;7.372;2024-01-15T04:39:42;97813.59;;;-2.22;90.72
47430;BME280;33181;49.246;7.372;2024-01-15T04:42:07;97793.00;;;-2.22;91.01
47430;BME280;33181;49.246;7.372;2024-01-15T04:44:33;97795.44;;;-2.19;91.65
47430;BME280;33181;49.246;7.372;2024-01-15T04:46:59;97796.41;;;-2.03;90.86
47430;BME280;33181;49.246;7.372;2024-01-15T04:49:24;97792.59;;;-1.94;90.23
47430;BME280;33181;49.246;7.372;2024-01-15T04:51:52;97790.03;;;-1.94;89.92
47430;BME280;33181;49.246;7.372;2024-01-15T04:54:18;97798.78;;;-2.17;90.76
47430;BME280;33181;49.246;7.372;2024-01-15T04:56:44;97790.34;;;-2.21;91.12
47430;BME280;33181;49.246;7.372;2024-01-15T04:59:11;97790.78;;;-2.30;91.80
47430;BME280;33181;49.246;7.372;2024-01-15T05:01:36;97785.44;;;-2.25;92.12
47430;BME280;33181;49.246;7.372;2024-01-15T05:04:02;97791.53;;;-2.09;91.64
47430;BME280;33181;49.246;7.372;2024-01-15T05:06:28;97784.06;;;-1.95;91.88
47430;BME280;33181;49.246;7.372;2024-01-15T05:08:54;97785.06;;;-1.99;91.09
47430;BME280;33181;49.246;7.372;2024-01-15T05:11:20;97782.94;;;-1.89;90.16
47430;BME280;33181;49.246;7.372;2024-01-15T05:13:45;97785.19;;;-1.83;90.16
47430;BME280;33181;49.246;7.372;2024-01-15T05:16:11;97778.34;;;-1.82;89.60
47430;BME280;33181;49.246;7.372;2024-01-15T05:18:37;97778.50;;;-2.04;90.44
47430;BME280;33181;49.246;7.372;2024-01-15T05:21:03;97783.41;;;-2.00;90.84
47430;BME280;33181;49.246;7.372;2024-01-15T05:23:31;97778.28;;;-2.00;90.53
47430;BME280;33181;49.246;7.372;2024-01-15T05:25:57;97773.13;;;-2.00;90.63
47430;BME280;33181;49.246;7.372;2024-01-15T05:28:23;97770.56;;;-2.00;90.59
47430;BME280;33181;49.246;7.372;2024-01-15T05:30:49;97768.75;;;-1.98;91.23
47430;BME280;33181;49.246;7.372;2024-01-15T05:33:16;97768.66;;;-1.96;91.13
47430;BME280;33181;49.246;7.372;2024-01-15T05:35:42;97766.94;;;-1.96;90.85
47430;BME280;33181;49.246;7.372;2024-01-15T05:38:08;97764.50;;;-1.99;91.40
47430;BME280;33181;49.246;7.372;2024-01-15T05:40:34;97768.53;;;-2.12;91.64
47430;BME280;33181;49.246;7.372;2024-01-15T05:43:00;97771.25;;;-2.15;92.53
47430;BME280;33181;49.246;7.372;2024-01-15T05:45:26;97761.09;;;-2.18;93.00
47430;BME280;33181;49.246;7.372;2024-01-15T05:47:52;97769.59;;;-2.16;93.23
47430;BME280;33181;49.246;7.372;2024-01-15T05:50:20;97767.34;;;-2.05;93.35
47430;BME280;33181;49.246;7.372;2024-01-15T05:52:46;97767.84;;;-1.97;93.05
47430;BME280;33181;49.246;7.372;2024-01-15T05:55:12;97764.28;;;-1.94;92.66
47430;BME280;33181;49.246;7.372;2024-01-15T05:57:38;97762.97;;;-2.03;92.61
47430;BME280;33181;49.246;7.372;2024-01-15T06:00:05;97757.81;;;-2.03;93.05
47430;BME280;33181;49.246;7.372;2024-01-15T06:02:30;97754.06;;;-1.96;92.21
47430;BME280;33181;49.246;7.372;2024-01-15T06:04:56;97757.13;;;-1.88;92.20
47430;BME280;33181;49.246;7.372;2024-01-15T06:07:22;97759.00;;;-1.72;92.11
47430;BME280;33181;49.246;7.372;2024-01-15T06:09:49;97751.75;;;-1.83;91.87
47430;BME280;33181;49.246;7.372;2024-01-15T06:12:14;97748.69;;;-1.72;91.32
47430;BME280;33181;49.246;7.372;2024-01-15T06:14:40;97743.25;;;-1.66;90.97
47430;BME280;33181;49.246;7.372;2024-01-15T06:17:07;97748.47;;;-1.68;91.16
47430;BME280;33181;49.246;7.372;2024-01-15T06:19:32;97746.50;;;-1.63;91.00
47430;BME280;33181;49.246;7.372;2024-01-15T06:21:58;97747.72;;;-1.70;91.41
47430;BME280;33181;49.246;7.372;2024-01-15T06:24:24;97744.50;;;-1.75;91.77
47430;BME280;33181;49.246;7.372;2024-01-15T06:26:49;97740.28;;;-1.76;91.85
47430;BME280;33181;49.246;7.372;2024-01-15T06:29:15;97750.44;;;-1.73;92.13
47430;BME280;33181;49.246;7.372;2024-01-15T06:31:41;97747.81;;;-1.90;92.77
47430;BME280;33181;49.246;7.372;2024-01-15T06:34:07;97751.47;;;-1.77;92.76
47430;BME280;33181;49.246;7.372;2024-01-15T06:36:32;97750.06;;;-1.65;92.57
47430;BME280;33181;49.246;7.372;2024-01-15T06:39:00;97752.63;;;-1.65;92.18
47430;BME280;33181;49.246;7.372;2024-01-15T06:41:26;97747.03;;;-1.73;92.27
47430;BME280;33181;49.246;7.372;2024-01-15T06:43:52;97743.41;;;-1.69;92.72
47430;BME280;33181;49.246;7.372;2024-01-15T06:46:21;97746.72;;;-1.67;92.15
47430;BME280;33181;49.246;7.372;2024-01-15T06:48:48;97741.34;;;-1.63;92.74
47430;BME280;33181;49.246;7.372;2024-01-15T06:51:15;97732.53;;;-1.57;92.47
47430;BME280;33181;49.246;7.372;2024-01-15T06:53:41;97730.09;;;-1.60;92.44
47430;BME280;33181;49.246;7.372;2024-01-15T06:56:06;97728.41;;;-1.61;92.93
47430;BME280;33181;49.246;7.372;2024-01-15T06:58:32;97721.00;;;-1.50;92.50
47430;BME280;33181;49.246;7.372;2024-01-15T07:00:58;97715.81;;;-1.67;92.96
47430;BME280;33181;49.246;7.372;2024-01-15T07:03:24;97721.34;;;-1.75;94.08
47430;BME280;33181;49.246;7.372;2024-01-15T07:05:50;97713.09;;;-1.81;94.69
47430;BME280;33181;49.246;7.372;2024-01-15T07:08:16;97699.41;;;-1.65;94.37
47430;BME280;33181;49.246;7.372;2024-01-15T07:10:41;97703.72;;;-1.65;94.33
47430;BME280;33181;49.246;7.372;2024-01-15T07:13:08;97705.53;;;-1.67;93.95
47430;BME280;33181;49.246;7.372;2024-01-15T07:15:34;97700.84;;;-1.59;94.22
47430;BME280;33181;49.246;7.372;2024-01-15T07:18:00;97689.88;;;-1.45;93.85
47430;BME280;33181;49.246;7.372;2024-01-15T07:20:25;97699.34;;;-1.46;92.74
47430;BME280;33181;49.246;7.372;2024-01-15T07:22:51;97701.84;;;-1.44;93.28
47430;BME280;33181;49.246;7.372;2024-01-15T07:25:17;97702.22;;;-1.34;92.22
47430;BME280;33181;49.246;7.372;2024-01-15T07:27:42;97705.50;;;-1.31;92.14
47430;BME280;33181;49.246;7.372;2024-01-15T07:30:11;97703.69;;;-1.29;91.90
47430;BME280;33181;49.246;7.372;2024-01-15T07:32:40;97712.81;;;-1.23;91.30
47430;BME280;33181;49.246;7.372;2024-01-15T07:35:06;97719.50;;;-1.19;91.90
47430;BME280;33181;49.246;7.372;2024-01-15T07:37:32;97723.88;;;-1.21;91.03
47430;BME280;33181;49.246;7.372;2024-01-15T07:39:59;97718.81;;;-1.57;92.33
47430;BME280;33181;49.246;7.372;2024-01-15T07:42:25;97713.56;;;-1.56;92.85
47430;BME280;33181;49.246;7.372;2024-01-15T07:44:50;97698.81;;;-1.52;92.75
47430;BME280;33181;49.246;7.372;2024-01-15T07:47:17;97701.75;;;-1.43;92.70
47430;BME280;33181;49.246;7.372;2024-01-15T07:49:43;97720.16;;;-1.33;92.59
47430;BME280;33181;49.246;7.372;2024-01-15T07:52:09;97714.03;;;-1.30;92.46
47430;BME280;33181;49.246;7.372;2024-01-15T07:54:36;97715.63;;;-1.28;92.20
47430;BME280;33181;49.246;7.372;2024-01-15T07:57:03;97717.53;;;-1.31;92.52
47430;BME280;33181;49.246;7.372;2024-01-15T07:59:29;97714.81;;;-1.28;93.00
47430;BME280;33181;49.246;7.372;2024-01-15T08:01:54;97707.13;;;-1.30;92.84
47430;BME280;33181;49.246;7.372;2024-01-15T08:04:20;97707.38;;;-1.34;93.48
47430;BME280;33181;49.246;7.372;2024-01-15T08:06:47;97706.84;;;-1.24;93.47
47430;BME280;33181;49.246;7.372;2024-01-15T08:09:13;97706.63;;;-1.19;93.51
47430;BME280;33181;49.246;7.372;2024-01-15T08:11:40;97701.38;;;-1.18;93.57
47430;BME280;33181;49.246;7.372;2024-01-15T08:14:07;97701.00;;;-1.27;94.00
47430;BME280;33181;49.246;7.372;2024-01-15T08:16:33;97701.69;;;-1.24;94.48
47430;BME280;33181;49.246;7.372;2024-01-15T08:18:59;97710.09;;;-1.20;94.62
47430;BME280;33181;49.246;7.372;2024-01-15T08:21:25;97709.78;;;-1.14;93.90
47430;BME280;33181;49.246;7.372;2024-01-15T08:23:50;97707.16;;;-1.12;93.81
47430;BME280;33181;49.246;7.372;2024-01-15T08:26:16;97694.78;;;-1.06;94.07
47430;BME280;33181;49.246;7.372;2024-01-15T08:28:42;97701.91;;;-0.94;93.86
47430;BME280;33181;49.246;7.372;2024-01-15T08:31:10;97698.25;;;-0.89;93.01
47430;BME280;33181;49.246;7.372;2024-01-15T08:33:36;97692.16;;;-0.88;92.86
47430;BME280;33181;49.246;7.372;2024-01-15T08:36:02;97689.44;;;-0.85;93.00
47430;BME280;33181;49.246;7.372;2024-01-15T08:38:28;97698.59;;;-0.80;92.97
47430;BME280;33181;49.246;7.372;2024-01-15T08:40:53;97693.28;;;-0.77;92.97
47430;BME280;33181;49.246;7.372;2024-01-15T08:43:24;97694.38;;;-0.81;92.84
47430;BME280;33181;49.246;7.372;2024-01-15T08:45:50;97687.56;;;-0.99;94.12
47430;BME280;33181;49.246;7.372;2024-01-15T08:48:16;97685.19;;;-0.86;93.91
47430;BME280;33181;49.246;7.372;2024-01-15T08:50:42;97681.53;;;-0.82;93.91
47430;BME280;33181;49.246;7.372;2024-01-15T08:53:08;97676.53;;;-0.85;94.11
47430;BME280;33181;49.246;7.372;2024-01-15T08:55:33;97680.88;;;-0.86;94.52
47430;BME280;33181;49.246;7.372;2024-01-15T08:57:59;97683.06;;;-0.78;93.86
47430;BME280;33181;49.246;7.372;2024-01-15T09:00:25;97681.72;;;-0.70;94.04
47430;BME280;33181;49.246;7.372;2024-01-15T09:02:50;97677.56;;;-0.88;95.23
47430;BME280;33181;49.246;7.372;2024-01-15T09:05:16;97688.19;;;-0.94;96.15
47430;BME280;33181;49.246;7.372;2024-01-15T09:07:42;97682.09;;;-0.93;96.50
47430;BME280;33181;49.246;7.372;2024-01-15T09:10:08;97680.41;;;-1.10;98.39
47430;BME280;33181;49.246;7.372;2024-01-15T09:12:34;97678.91;;;-0.98;98.53
47430;BME280;33181;49.246;7.372;2024-01-15T09:14:59;97681.81;;;-1.04;98.94
47430;BME280;33181;49.246;7.372;2024-01-15T09:17:25;97677.34;;;-1.01;99.46
47430;BME280;33181;49.246;7.372;2024-01-15T09:19:53;97680.97;;;-1.05;99.70
47430;BME280;33181;49.246;7.372;2024-01-15T09:22:19;97684.31;;;-1.03;100.00
47430;BME280;33181;49.246;7.372;2024-01-15T09:24:45;97669.88;;;-0.89;100.00
47430;BME280;33181;49.246;7.372;2024-01-15T09:27:11;97673.44;;;-0.92;100.00
47430;BME280;33181;49.246;7.372;2024-01-15T09:29:37;97670.91;;;-0.76;99.97
47430;BME280;33181;49.246;7.372;2024-01-15T09:32:06;97676.94;;;-0.76;99.50
47430;BME280;33181;49.246;7.372;2024-01-15T09:34:33;97669.84;;;-0.72;99.03
47430;BME280;33181;49.246;7.372;2024-01-15T09:36:59;97664.94;;;-0.61;98.55
47430;BME280;33181;49.246;7.372;2024-01-15T09:39:27;97669.22;;;-0.60;97.95
47430;BME280;33181;49.246;7.372;2024-01-15T09:41:54;97663.31;;;-0.46;97.59
47430;BME280;33181;49.246;7.372;2024-01-15T09:44:21;97668.91;;;-0.38;96.54
47430;BME280;33181;49.246;7.372;2024-01-15T09:46:48;97673.78;;;-0.33;96.87
47430;BME280;33181;49.246;7.372;2024-01-15T09:49:16;97678.13;;;-0.18;96.00
47430;BME280;33181;49.246;7.372;2024-01-15T09:51:42;97675.22;;;-0.12;95.22
47430;BME280;33181;49.246;7.372;2024-01-15T09:54:09;97672.19;;;-0.04;95.01
47430;BME280;33181;49.246;7.372;2024-01-15T09:56:35;97680.28;;;-0.10;94.86
47430;BME280;33181;49.246;7.372;2024-01-15T09:59:05;97675.56;;;-0.18;95.61
47430;BME280;33181;49.246;7.372;2024-01-15T10:01:32;97666.88;;;-0.17;95.93
47430;BME280;33181;49.246;7.372;2024-01-15T10:04:02;97662.00;;;-0.21;96.07
47430;BME280;33181;49.246;7.372;2024-01-15T10:06:28;97662.06;;;-0.23;96.24
47430;BME280;33181;49.246;7.372;2024-01-15T10:08:54;97661.38;;;-0.11;95.94
47430;BME280;33181;49.246;7.372;2024-01-15T10:11:22;97661.72;;;-0.01;95.47
47430;BME280;33181;49.246;7.372;2024-01-15T10:13:47;97656.00;;;-0.06;95.36
47430;BME280;33181;49.246;7.372;2024-01-15T10:16:17;97664.72;;;-0.09;96.40
47430;BME280;33181;49.246;7.372;2024-01-15T10:18:43;97670.44;;;-0.04;95.82
47430;BME280;33181;49.246;7.372;2024-01-15T10:21:09;97668.97;;;-0.08;96.71
47430;BME280;33181;49.246;7.372;2024-01-15T10:23:34;97670.63;;;-0.07;96.82
47430;BME280;33181;49.246;7.372;2024-01-15T10:26:02;97672.03;;;-0.01;95.88
47430;BME280;33181;49.246;7.372;2024-01-15T10:28:28;97670.59;;;0.09;96.05
47430;BME280;33181;49.246;7.372;2024-01-15T10:30:57;97670.59;;;0.09;95.74
47430;BME280;33181;49.246;7.372;2024-01-15T10:33:24;97662.28;;;0.04;96.09
47430;BME280;33181;49.246;7.372;2024-01-15T10:35:57;97651.97;;;0.04;96.42
47430;BME280;33181;49.246;7.372;2024-01-15T10:38:25;97657.28;;;0.17;96.24
47430;BME280;33181;49.246;7.372;2024-01-15T10:40:55;97647.81;;;0.02;97.17
47430;BME280;33181;49.246;7.372;2024-01-15T10:43:22;97647.03;;;-0.01;97.32
47430;BME280;33181;49.246;7.372;2024-01-15T10:45:49;97645.72;;;0.08;97.39
47430;BME280;33181;49.246;7.372;2024-01-15T10:48:18;97644.03;;;0.23;96.59
47430;BME280;33181;49.246;7.372;2024-01-15T10:50:46;97643.44;;;0.18;96.26
47430;BME280;33181;49.246;7.372;2024-01-15T10:53:14;97634.69;;;0.20;96.24
47430;BME280;33181;49.246;7.372;2024-01-15T10:55:42;97635.28;;;0.26;96.13
47430;BME280;33181;49.246;7.372;2024-01-15T10:58:08;97631.53;;;0.15;95.90
47430;BME280;33181;49.246;7.372;2024-01-15T11:00:38;97633.81;;;0.06;96.21
47430;BME280;33181;49.246;7.372;2024-01-15T11:03:05;97640.53;;;0.08;96.98
47430;BME280;33181;49.246;7.372;2024-01-15T11:08:06;97647.13;;;0.14;96.95
47430;BME280;33181;49.246;7.372;2024-01-15T11:10:52;97642.13;;;0.11;97.18
47430;BME280;33181;49.246;7.372;2024-01-15T11:16:06;97634.22;;;0.14;97.50
47430;BME280;33181;49.246;7.372;2024-01-15T11:18:40;97636.94;;;0.27;96.70
47430;BME280;33181;49.246;7.372;2024-01-15T11:23:53;97646.19;;;0.15;97.37
47430;BME280;33181;49.246;7.372;2024-01-15T11:26:36;97636.66;;;0.31;97.35
47430;BME280;33181;49.246;7.372;2024-01-15T11:29:05;97650.59;;;0.29;97.04
47430;BME280;33181;49.246;7.372;2024-01-15T11:34:08;97659.72;;;0.34;96.80
47430;BME280;33181;49.246;7.372;2024-01-15T11:42:01;97651.94;;;0.20;96.62
47430;BME280;33181;49.246;7.372;2024-01-15T11:44:29;97649.03;;;0.40;96.17
47430;BME280;33181;49.246;7.372;2024-01-15T11:47:09;97647.97;;;0.44;95.88
47430;BME280;33181;49.246;7.372;2024-01-15T11:50:00;97655.19;;;0.54;95.34
47430;BME280;33181;49.246;7.372;2024-01-15T11:52:36;97665.31;;;0.57;95.08
47430;BME280;33181;49.246;7.372;2024-01-15T11:55:27;97666.06;;;0.59;94.28
47430;BME280;33181;49.246;7.372;2024-01-15T11:57:54;97664.13;;;0.62;93.84
47430;BME280;33181;49.246;7.372;2024-01-15T12:00:21;97671.00;;;0.63;93.74
47430;BME280;33181;49.246;7.372;2024-01-15T12:02:49;97677.63;;;0.67;93.37
47430;BME280;33181;49.246;7.372;2024-01-15T12:05:18;97675.22;;;0.64;92.90
47430;BME280;33181;49.246;7.372;2024-01-15T12:07:46;97677.22;;;0.59;92.79
47430;BME280;33181;49.246;7.372;2024-01-15T12:10:20;97676.56;;;0.56;93.00
47430;BME280;33181;49.246;7.372;2024-01-15T12:13:13;97664.38;;;0.43;93.56
47430;BME280;33181;49.246;7.372;2024-01-15T12:15:40;97667.34;;;0.52;93.16
47430;BME280;33181;49.246;7.372;2024-01-15T12:18:08;97672.16;;;0.58;92.76
47430;BME280;33181;49.246;7.372;2024-01-15T12:20:37;97669.22;;;0.64;92.75
47430;BME280;33181;49.246;7.372;2024-01-15T12:23:04;97675.84;;;0.54;92.01
47430;BME280;33181;49.246;7.372;2024-01-15T12:25:31;97667.25;;;0.53;91.58
47430;BME280;33181;49.246;7.372;2024-01-15T12:27:58;97673.16;;;0.55;91.61
47430;BME280;33181;49.246;7.372;2024-01-15T12:30:26;97680.56;;;0.61;91.42
47430;BME280;33181;49.246;7.372;2024-01-15T12:32:51;97673.56;;;0.63;91.39
47430;BME280;33181;49.246;7.372;2024-01-15T12:35:17;97670.31;;;0.60;90.95
47430;BME280;33181;49.246;7.372;2024-01-15T12:37:44;97664.13;;;0.62;91.16
47430;BME280;33181;49.246;7.372;2024-01-15T12:40:13;97675.28;;;0.63;91.03
47430;BME280;33181;49.246;7.372;2024-01-15T12:42:40;97676.50;;;0.57;90.43
47430;BME280;33181;49.246;7.372;2024-01-15T12:45:08;97677.41;;;0.56;90.40
47430;BME280;33181;49.246;7.372;2024-01-15T12:47:34;97683.16;;;0.61;90.67
47430;BME280;33181;49.246;7.372;2024-01-15T12:50:00;97685.81;;;0.60;91.07
47430;BME280;33181;49.246;7.372;2024-01-15T12:52:29;97677.16;;;0.61;90.40
47430;BME280;33181;49.246;7.372;2024-01-15T12:54:55;97680.03;;;0.71;90.29
47430;BME280;33181;49.246;7.372;2024-01-15T12:57:22;97681.31;;;0.63;89.97
47430;BME280;33181;49.246;7.372;2024-01-15T12:59:49;97679.56;;;0.64;89.50
47430;BME280;33181;49.246;7.372;2024-01-15T13:02:15;97678.16;;;0.58;89.38
47430;BME280;33181;49.246;7.372;2024-01-15T13:04:42;97690.91;;;0.76;88.66
47430;BME280;33181;49.246;7.372;2024-01-15T13:07:08;97686.44;;;0.79;88.86
47430;BME280;33181;49.246;7.372;2024-01-15T13:09:35;97687.25;;;0.80;88.51
47430;BME280;33181;49.246;7.372;2024-01-15T13:12:04;97677.84;;;0.93;87.08
47430;BME280;33181;49.246;7.372;2024-01-15T13:14:31;97682.56;;;1.01;86.56
47430;BME280;33181;49.246;7.372;2024-01-15T13:16:58;97677.03;;;1.07;85.41